Flight Track Log - Related Links

Times and Time Zones

All times are in EDT time to prevent confusion due to time zone crossing. See the N43VS flight status page for this flight to view local times or setup timezone preferences in your user account.


Time Position Orientation Groundspeed Altitude Reporting Facility
EDT Latitude Longitude Course Direction KTS MPH feet Rate Location/Type
Tue 05:38:26 PM 42.1481 -84.8758 291° West 201 231 14,500  Level Cleveland Center
Tue 05:39:36 PM 42.1697 -84.9536 291° West 218 251 16,600 2,091 Climbing Chicago Center
Tue 05:40:38 PM 42.1897 -85.0261 290° West 212 244 19,100 2,081 Climbing Chicago Center
Tue 05:41:40 PM 42.2167 -85.1111 293° West 209 241 20,900 1,548 Climbing Chicago Center
Tue 05:42:42 PM 42.2425 -85.1964 292° West 238 274 22,300 1,548 Climbing Chicago Center
Tue 05:43:44 PM 42.2681 -85.2828 292° West 247 284 24,100 1,694 Climbing Chicago Center
Tue 05:44:46 PM 42.2922 -85.3642 292° West 238 274 25,800 1,536 Climbing Chicago Center
Tue 05:45:49 PM 42.3158 -85.4436 292° West 231 266 27,300 1,344 Climbing Chicago Center
Tue 05:46:51 PM 42.3394 -85.5214 292° West 225 259 28,600 1,306 Climbing Chicago Center
Tue 05:47:53 PM 42.3672 -85.6161 292° West 226 260 30,000 1,210 Climbing Chicago Center
Tue 05:48:55 PM 42.3906 -85.6953 292° West 226 260 31,100 1,016 Climbing Chicago Center
Tue 05:49:57 PM 42.4142 -85.7747 292° West 228 262 32,100 823 Climbing Chicago Center
Tue 05:50:59 PM 42.4375 -85.8539 292° West 227 261 32,800 774 Climbing Chicago Center
Tue 05:52:01 PM 42.4617 -85.9347 292° West 230 265 33,700 677 Climbing Chicago Center
Tue 05:53:03 PM 42.4847 -86.0150 291° West 229 264 34,200 242 Climbing Chicago Center
Tue 05:54:05 PM 42.5156 -86.1194 292° West 244 281 34,200  Level Chicago Center
Tue 05:55:07 PM 42.5425 -86.2136 291° West 263 303 34,200  Level Chicago Center
Tue 05:56:10 PM 42.5711 -86.3114 292° West 276 318 34,200  Level Chicago Center
Tue 05:57:12 PM 42.5997 -86.4106 291° West 281 323 34,200  Level Chicago Center
Tue 05:58:14 PM 42.6283 -86.5131 291° West 287 330 34,200  Level Chicago Center
Tue 05:59:16 PM 42.6575 -86.6142 291° West 287 330 34,200  Level Chicago Center
Tue 06:00:18 PM 42.6922 -86.7375 291° West 288 331 34,200  Level Chicago Center
Tue 06:01:20 PM 42.7211 -86.8406 291° West 291 335 34,200  Level Chicago Center
Tue 06:02:22 PM 42.7503 -86.9417 291° West 288 331 34,200  Level Chicago Center
Tue 06:03:24 PM 42.7781 -87.0442 290° West 289 333 34,200  Level Chicago Center
Tue 06:04:26 PM 42.8064 -87.1464 291° West 288 331 34,200  Level Chicago Center
Tue 06:05:28 PM 42.8347 -87.2478 291° West 288 331 34,200  Level Chicago Center
Tue 06:06:30 PM 42.8636 -87.3489 291° West 288 331 34,200  Level Chicago Center
Tue 06:07:33 PM 42.8947 -87.4686 290° West 289 333 34,200  Level Chicago Center
Tue 06:08:35 PM 42.9225 -87.5697 291° West 288 331 34,200 -387 Level Chicago Center
Tue 06:09:37 PM 42.9506 -87.6731 290° West 290 334 33,400 -1,016 Descending Chicago Center
Tue 06:10:39 PM 42.9878 -87.8097 290° West 318 366 32,100 -677 Descending Chicago Center
Tue 06:11:41 PM 43.0186 -87.9208 291° West 316 364 32,000 -48 Descending Chicago Center
Tue 06:12:43 PM 43.0472 -88.0281 290° West 304 350 32,000  Level Chicago Center
Tue 06:13:45 PM 43.0767 -88.1344 291° West 299 344 32,000  Level Chicago Center
Tue 06:14:47 PM 43.1039 -88.2403 289° West 295 339 32,000  Level Chicago Center
Tue 06:15:49 PM 43.1436 -88.3411 298° West 311 358 32,000  Level Chicago Center
Tue 06:16:51 PM 43.2039 -88.4328 312° West 321 369 32,000  Level Chicago Center
Tue 06:17:54 PM 43.2700 -88.5453 309° West 314 361 32,000  Level Chicago Center
Tue 06:18:56 PM 43.3264 -88.6400 309° West 316 364 32,000  Level Chicago Center
Tue 06:19:58 PM 43.3814 -88.7364 308° West 316 364 32,000  Level Chicago Center
Tue 06:21:00 PM 43.4364 -88.8325 308° West 317 365 32,000  Level Chicago Center
Tue 06:22:02 PM 43.4914 -88.9269 309° West 316 364 32,000  Level Chicago Center
Tue 06:23:04 PM 43.5461 -89.0222 308° West 316 364 32,000  Level Chicago Center
Tue 06:24:06 PM 43.6000 -89.1172 308° West 316 364 32,000  Level Chicago Center
Tue 06:25:08 PM 43.6636 -89.2303 308° West 311 358 32,000  Level Chicago Center
Tue 06:26:10 PM 43.7164 -89.3225 308° West 308 354 32,000  Level Chicago Center
Tue 06:27:12 PM 43.7689 -89.4153 308° West 307 353 32,000  Level Chicago Center
Tue 06:28:14 PM 43.8214 -89.5089 308° West 308 354 32,000  Level Chicago Center
Tue 06:29:17 PM 43.8731 -89.5997 308° West 303 349 32,000  Level Chicago Center
Tue 06:30:19 PM 43.9239 -89.6919 307° West 301 346 32,000  Level Chicago Center
Tue 06:31:21 PM 43.9839 -89.8053 306° West 305 351 32,000  Level Chicago Center
Tue 06:32:23 PM 44.0142 -89.9047 293° West 285 328 32,000  Level Chicago Center
Tue 06:33:25 PM 44.0536 -90.0028 299° West 288 331 32,000  Level Chicago Center
Tue 06:34:27 PM 44.0903 -90.1014 297° West 289 333 32,000  Level Chicago Center
Tue 06:35:29 PM 44.1267 -90.2008 297° West 289 333 32,000  Level Chicago Center
Tue 06:36:31 PM 44.1619 -90.2975 297° West 287 330 32,000  Level Chicago Center
Tue 06:37:33 PM 44.2047 -90.4186 296° West 291 335 32,000  Level Chicago Center
Tue 06:38:35 PM 44.2414 -90.5172 297° West 291 335 32,000  Level Chicago Center
Tue 06:39:37 PM 44.2794 -90.6189 298° West 297 342 32,000 -375 Level Chicago Center
Tue 06:40:43 PM 44.3186 -90.7286 297° West 301 346 31,200 -1,125 Descending Minneapolis Center
Tue 06:41:45 PM 44.3703 -90.8661 298° West 331 381 29,600 -1,452 Descending Minneapolis Center
Tue 06:42:47 PM 44.4075 -90.9739 296° West 341 392 28,200 -1,645 Descending Minneapolis Center
Tue 06:43:49 PM 44.4525 -91.0928 298° West 345 397 26,200 -1,935 Descending Minneapolis Center
Tue 06:44:51 PM 44.4992 -91.2272 296° West 329 379 24,200 -2,081 Descending Minneapolis Center
Tue 06:45:53 PM 44.5386 -91.3389 296° West 323 372 21,900 -2,032 Descending Minneapolis Center
Tue 06:46:55 PM 44.5789 -91.4519 297° West 323 372 20,000 -1,790 Descending Minneapolis Center
Tue 06:47:57 PM 44.6169 -91.5622 296° West 321 369 18,200 -1,854 Descending Minneapolis Center
Tue 06:48:58 PM 44.6531 -91.6647 296° West 304 350 16,200 -1,854 Descending Minneapolis Center
Tue 06:50:00 PM 44.6897 -91.7683 296° West 299 344 14,400 -1,839 Descending Minneapolis Center
Tue 06:51:02 PM 44.7342 -91.8908 297° West 296 341 12,400 -1,839 Descending Minneapolis Center
Tue 06:52:04 PM 44.7681 -91.9903 296° West 288 331 10,600 -1,694 Descending Minneapolis Center
Tue 06:53:06 PM 44.8019 -92.0892 296° West 284 327 8,900 -1,452 Descending Minneapolis Center
Tue 06:54:08 PM 44.8356 -92.1844 296° West 275 316 7,600 -1,403 Descending Minneapolis Center
Tue 06:55:10 PM 44.8722 -92.2894 296° West 264 304 6,000 -774 Descending Minneapolis Center
Tue 06:56:12 PM 44.8964 -92.3653 294° West 256 295 6,000 -97 Level Minneapolis Center
Tue 06:57:14 PM 44.9267 -92.4731 292° West 248 285 5,800 -532 Descending Minneapolis Center
Tue 06:58:16 PM 44.9536 -92.5617 293° West 248 285 4,900 -823 Descending Minneapolis Center
Tue 06:59:18 PM 44.9797 -92.6483 293° West 244 281 4,100 -387 Descending Minneapolis Center
Tue 07:00:20 PM 45.0031 -92.7297 292° West 229 264 4,100  Level Minneapolis Center
Tue 07:01:22 PM 45.0258 -92.8061 293° West 218 251 4,100  Level Minneapolis Center
Tue 07:02:24 PM 45.0525 -92.8958 293° West 211 243 4,100 -194 Level Minneapolis Center
Tue 07:03:26 PM 45.0756 -92.9636 296° West 196 226 3,700 -484 Descending Minneapolis Center
Tue 07:04:28 PM 45.1061 -93.0217 307° West 190 219 3,100 -532 Descending Minneapolis Center
Tue 07:05:30 PM 45.1358 -93.0756 308° West 178 205 2,600 -484 Descending Minneapolis Center
Tue 07:06:32 PM 45.1433 -93.1336 280° West 151 174 2,100 -629 Descending Minneapolis Center
Tue 07:07:34 PM 45.1439 -93.1842 271° West 131 151 1,300 -774 Descending Minneapolis Center

Login

Don't have an account? Register now (free) for customized features, flight alerts, and more!